createdAt,value
2017-05-08T00:00:25.701Z,0
2017-05-08T00:01:36.749Z,0
2017-05-08T00:02:47.761Z,0
2017-05-08T00:03:58.975Z,0
2017-05-08T00:05:09.985Z,0
2017-05-08T00:06:20.984Z,0
2017-05-08T00:07:31.974Z,0
2017-05-08T00:08:43.191Z,0
2017-05-08T00:09:54.403Z,0
2017-05-08T00:11:05.405Z,0
2017-05-08T00:12:16.463Z,0
2017-05-08T00:13:27.474Z,0
2017-05-08T00:14:38.498Z,0
2017-05-08T00:15:49.511Z,0
2017-05-08T00:17:00.518Z,0
2017-05-08T00:18:11.767Z,0
2017-05-08T00:19:22.781Z,0
2017-05-08T00:20:33.804Z,0
2017-05-08T00:21:44.824Z,0
2017-05-08T00:22:55.829Z,0
2017-05-08T00:24:07.037Z,0
2017-05-08T00:25:18.043Z,0
2017-05-08T00:26:29.238Z,0
2017-05-08T00:27:40.453Z,0
2017-05-08T00:28:51.475Z,0
2017-05-08T00:30:02.488Z,0
2017-05-08T00:31:13.516Z,0
2017-05-08T00:32:24.510Z,0
2017-05-08T00:33:35.523Z,0
2017-05-08T00:34:46.578Z,0
2017-05-08T00:35:57.590Z,0
2017-05-08T00:37:08.831Z,0
2017-05-08T00:38:19.838Z,0
2017-05-08T00:39:30.850Z,0
2017-05-08T00:40:41.859Z,0
2017-05-08T00:41:52.896Z,0
2017-05-08T00:43:03.914Z,0
2017-05-08T00:44:15.131Z,0
2017-05-08T00:45:26.184Z,0
2017-05-08T00:46:37.387Z,0
2017-05-08T00:47:48.388Z,0
2017-05-08T00:48:59.393Z,0
2017-05-08T00:50:10.396Z,0
2017-05-08T00:51:21.434Z,0
2017-05-08T00:52:32.437Z,0
2017-05-08T00:53:43.433Z,0
2017-05-08T00:54:54.645Z,0
2017-05-08T00:56:05.710Z,0
2017-05-08T00:57:16.714Z,0
2017-05-08T00:58:27.774Z,0
2017-05-08T00:59:38.784Z,0
2017-05-08T01:00:49.836Z,0
2017-05-08T01:02:00.846Z,0
2017-05-08T01:03:12.304Z,0
2017-05-08T01:04:23.300Z,0
2017-05-08T01:05:34.312Z,0
2017-05-08T01:06:45.353Z,0
2017-05-08T01:07:56.353Z,0
2017-05-08T01:09:07.377Z,0
2017-05-08T01:10:18.384Z,0
2017-05-08T01:11:29.394Z,0
2017-05-08T01:12:40.412Z,0
2017-05-08T01:13:51.420Z,0
2017-05-08T01:15:02.437Z,0
2017-05-08T01:16:13.454Z,0
2017-05-08T01:17:24.539Z,0
2017-05-08T01:18:35.553Z,0
2017-05-08T01:19:46.572Z,0
2017-05-08T01:20:57.772Z,0
2017-05-08T01:22:08.860Z,0
2017-05-08T01:23:20.080Z,0
2017-05-08T01:24:31.092Z,0
2017-05-08T01:25:42.098Z,0
2017-05-08T01:26:53.108Z,0
2017-05-08T01:28:04.175Z,0
2017-05-08T01:29:15.207Z,0
2017-05-08T01:30:26.230Z,0
2017-05-08T01:31:37.235Z,0
2017-05-08T01:32:48.245Z,0
2017-05-08T01:33:59.253Z,0
2017-05-08T01:35:10.252Z,0
2017-05-08T01:36:21.260Z,0
2017-05-08T01:37:32.476Z,0
2017-05-08T01:38:43.499Z,0
2017-05-08T01:39:54.717Z,0
2017-05-08T01:41:05.718Z,0
2017-05-08T01:42:16.712Z,0
2017-05-08T01:43:27.723Z,0
2017-05-08T01:44:38.804Z,0
2017-05-08T01:45:50.016Z,0
2017-05-08T01:47:01.028Z,0
2017-05-08T01:48:12.046Z,0
2017-05-08T01:49:23.254Z,0
2017-05-08T01:50:34.249Z,0
2017-05-08T01:51:45.240Z,0
2017-05-08T01:52:56.253Z,0
2017-05-08T01:54:07.256Z,0
2017-05-08T01:55:18.300Z,0
2017-05-08T01:56:29.317Z,0
2017-05-08T01:57:40.537Z,0
2017-05-08T01:58:51.555Z,0
2017-05-08T02:00:02.556Z,0
2017-05-08T02:01:13.573Z,0
2017-05-08T02:02:24.581Z,0
2017-05-08T02:03:35.601Z,0
2017-05-08T02:04:46.822Z,0
2017-05-08T02:05:57.888Z,0
2017-05-08T02:07:08.895Z,0
2017-05-08T02:08:19.899Z,0
2017-05-08T02:09:31.112Z,0
2017-05-08T02:10:42.333Z,0
2017-05-08T02:11:53.344Z,0
2017-05-08T02:13:04.353Z,0
2017-05-08T02:14:15.366Z,0
2017-05-08T02:15:26.370Z,0
2017-05-08T02:16:37.618Z,0
2017-05-08T02:17:48.626Z,0
2017-05-08T02:18:59.840Z,0
2017-05-08T02:20:10.826Z,0
2017-05-08T02:21:21.839Z,0
2017-05-08T02:22:32.841Z,0
2017-05-08T02:23:43.849Z,0
2017-05-08T02:24:54.857Z,0
2017-05-08T02:26:05.875Z,0
2017-05-08T02:27:16.929Z,0
2017-05-08T02:28:27.950Z,0
2017-05-08T02:29:38.952Z,0
2017-05-08T02:30:49.947Z,0
2017-05-08T02:32:00.949Z,0
2017-05-08T02:33:12.011Z,0
2017-05-08T02:34:23.015Z,0
2017-05-08T02:35:34.031Z,0
2017-05-08T02:36:45.032Z,0
2017-05-08T02:37:56.437Z,0
2017-05-08T02:39:07.444Z,0
2017-05-08T02:40:18.440Z,0
2017-05-08T02:41:29.450Z,0
2017-05-08T02:42:40.454Z,0
2017-05-08T02:43:51.461Z,0
2017-05-08T02:45:02.672Z,0
2017-05-08T02:46:13.695Z,0
2017-05-08T02:47:24.700Z,0
2017-05-08T02:48:35.725Z,0
2017-05-08T02:49:46.781Z,0
2017-05-08T02:50:57.786Z,0
2017-05-08T02:52:08.988Z,0
2017-05-08T02:53:20.029Z,0
2017-05-08T02:54:31.251Z,0
2017-05-08T02:55:42.267Z,0
2017-05-08T02:56:53.274Z,0
2017-05-08T02:58:04.284Z,0
2017-05-08T02:59:15.310Z,0
2017-05-08T03:00:26.368Z,0
2017-05-08T03:01:37.362Z,0
2017-05-08T03:02:48.407Z,0
2017-05-08T03:03:59.424Z,0
2017-05-08T03:05:10.431Z,0
2017-05-08T03:06:21.419Z,0
2017-05-08T03:07:32.618Z,0
2017-05-08T03:08:43.631Z,0
2017-05-08T03:09:54.832Z,0
2017-05-08T03:11:06.102Z,0
2017-05-08T03:12:17.301Z,0
2017-05-08T03:13:28.502Z,0
2017-05-08T03:14:39.705Z,0
2017-05-08T03:15:50.908Z,0
2017-05-08T03:17:01.914Z,0
2017-05-08T03:18:13.143Z,0
2017-05-08T03:19:24.150Z,0
2017-05-08T03:20:35.153Z,0
2017-05-08T03:21:46.213Z,0
2017-05-08T03:22:57.218Z,0
2017-05-08T03:24:08.224Z,0
2017-05-08T03:25:19.242Z,0
2017-05-08T03:26:30.239Z,0
2017-05-08T03:27:41.249Z,0
2017-05-08T03:28:52.255Z,0
2017-05-08T03:30:03.264Z,0
2017-05-08T03:31:14.471Z,0
2017-05-08T03:32:25.513Z,0
2017-05-08T03:33:36.725Z,0
2017-05-08T03:34:47.727Z,0
2017-05-08T03:35:58.740Z,0
2017-05-08T03:37:09.749Z,0
2017-05-08T03:38:20.965Z,0
2017-05-08T03:39:31.986Z,0
2017-05-08T03:40:43.030Z,0
2017-05-08T03:41:54.245Z,0
2017-05-08T03:43:05.261Z,0
2017-05-08T03:44:16.273Z,0
2017-05-08T03:45:27.284Z,0
2017-05-08T03:46:38.295Z,0
2017-05-08T03:47:49.515Z,0
2017-05-08T03:49:00.521Z,0
2017-05-08T03:50:11.525Z,0
2017-05-08T03:51:22.528Z,0
2017-05-08T03:52:33.760Z,0
2017-05-08T03:53:44.828Z,0
2017-05-08T03:54:55.830Z,0
2017-05-08T03:56:07.246Z,0
2017-05-08T03:57:18.252Z,0
2017-05-08T03:58:29.268Z,0
2017-05-08T03:59:40.289Z,0
2017-05-08T04:00:51.306Z,0
2017-05-08T04:02:02.505Z,0
2017-05-08T04:03:13.519Z,0
2017-05-08T04:04:24.579Z,0
2017-05-08T04:05:35.993Z,0
2017-05-08T04:06:47.014Z,0
2017-05-08T04:07:58.030Z,0
2017-05-08T04:09:09.042Z,0
2017-05-08T04:10:20.458Z,0
2017-05-08T04:11:31.459Z,5
2017-05-08T04:12:42.677Z,5
2017-05-08T04:13:53.697Z,5
2017-05-08T04:15:04.759Z,5
2017-05-08T04:16:15.779Z,5
2017-05-08T04:17:26.989Z,5
2017-05-08T04:18:38.008Z,5
2017-05-08T04:19:49.006Z,5
2017-05-08T04:21:00.024Z,5
2017-05-08T04:22:11.032Z,5
2017-05-08T04:23:22.034Z,10
2017-05-08T04:24:33.039Z,10
2017-05-08T04:25:44.101Z,10
2017-05-08T04:26:55.117Z,10
2017-05-08T04:28:06.159Z,10
2017-05-08T04:29:17.174Z,10
2017-05-08T04:30:28.392Z,10
2017-05-08T04:31:39.400Z,10
2017-05-08T04:32:50.415Z,10
2017-05-08T04:34:01.421Z,5
2017-05-08T04:35:12.438Z,5
2017-05-08T04:36:23.448Z,10
2017-05-08T04:37:34.452Z,10
2017-05-08T04:38:45.459Z,10
2017-05-08T04:39:56.483Z,10
2017-05-08T04:41:07.501Z,10
2017-05-08T04:42:18.506Z,10
2017-05-08T04:43:29.518Z,5
2017-05-08T04:44:40.531Z,5
2017-05-08T04:45:51.553Z,5
2017-05-08T04:47:02.589Z,10
2017-05-08T04:48:13.610Z,10
2017-05-08T04:49:24.624Z,10
2017-05-08T04:50:35.636Z,10
2017-05-08T04:51:46.630Z,10
2017-05-08T04:52:57.844Z,10
2017-05-08T04:54:09.060Z,10
2017-05-08T04:55:20.068Z,10
2017-05-08T04:56:31.280Z,10
2017-05-08T04:57:42.338Z,15
2017-05-08T04:58:53.353Z,15
2017-05-08T05:00:04.356Z,15
2017-05-08T05:01:15.356Z,15
2017-05-08T05:02:26.407Z,15
2017-05-08T05:03:37.620Z,20
2017-05-08T05:04:48.632Z,20
2017-05-08T05:05:59.848Z,25
2017-05-08T05:07:10.872Z,25
2017-05-08T05:08:22.124Z,30
2017-05-08T05:09:33.151Z,35
2017-05-08T05:10:44.158Z,35
2017-05-08T05:11:55.376Z,40
2017-05-08T05:13:06.381Z,40
2017-05-08T05:14:17.385Z,40
2017-05-08T05:15:28.405Z,35
2017-05-08T05:16:39.608Z,35
2017-05-08T05:17:50.621Z,35
2017-05-08T05:19:01.685Z,35
2017-05-08T05:20:12.699Z,40
2017-05-08T05:21:23.717Z,35
2017-05-08T05:22:34.715Z,40
2017-05-08T05:23:45.723Z,40
2017-05-08T05:24:56.734Z,45
2017-05-08T05:26:07.740Z,55
2017-05-08T05:27:18.962Z,60
2017-05-08T05:28:30.176Z,60
2017-05-08T05:29:41.438Z,55
2017-05-08T05:30:52.439Z,55
2017-05-08T05:32:03.463Z,60
2017-05-08T05:33:14.472Z,65
2017-05-08T05:34:25.690Z,65
2017-05-08T05:35:36.902Z,60
2017-05-08T05:36:48.127Z,55
2017-05-08T05:37:59.138Z,60
2017-05-08T05:39:10.152Z,65
2017-05-08T05:40:21.367Z,65
2017-05-08T05:41:32.376Z,65
2017-05-08T05:42:43.395Z,60
2017-05-08T05:43:54.415Z,65
2017-05-08T05:45:05.689Z,70
2017-05-08T05:46:16.691Z,65
2017-05-08T05:47:27.702Z,70
2017-05-08T05:48:38.724Z,70
2017-05-08T05:49:49.930Z,65
2017-05-08T05:51:00.994Z,65
2017-05-08T05:52:12.195Z,65
2017-05-08T05:53:23.412Z,65
2017-05-08T05:54:34.824Z,70
2017-05-08T05:55:46.035Z,70
2017-05-08T05:56:57.051Z,70
2017-05-08T05:58:08.099Z,70
2017-05-08T05:59:19.113Z,70
2017-05-08T06:00:30.134Z,70
2017-05-08T06:01:41.206Z,70
2017-05-08T06:02:52.421Z,80
2017-05-08T06:04:03.630Z,85
2017-05-08T06:05:14.639Z,85
2017-05-08T06:06:25.651Z,90
2017-05-08T06:07:36.654Z,90
2017-05-08T06:08:47.667Z,85
2017-05-08T06:09:58.689Z,85
2017-05-08T06:11:09.711Z,80
2017-05-08T06:12:20.768Z,80
2017-05-08T06:13:31.775Z,80
2017-05-08T06:14:42.794Z,80
2017-05-08T06:15:53.811Z,80
2017-05-08T06:17:04.822Z,80
2017-05-08T06:18:15.833Z,80
2017-05-08T06:19:26.857Z,85
2017-05-08T06:20:37.863Z,85
2017-05-08T06:21:48.873Z,85
2017-05-08T06:22:59.928Z,90
2017-05-08T06:24:10.941Z,90
2017-05-08T06:25:21.962Z,95
2017-05-08T06:26:32.981Z,100
2017-05-08T06:27:44.193Z,105
2017-05-08T06:28:55.194Z,105
2017-05-08T06:30:06.245Z,105
2017-05-08T06:31:17.255Z,105
2017-05-08T06:32:28.263Z,105
2017-05-08T06:33:39.365Z,105
2017-05-08T06:34:50.574Z,105
2017-05-08T06:36:01.582Z,105
2017-05-08T06:37:12.586Z,105
2017-05-08T06:38:23.597Z,105
2017-05-08T06:39:34.806Z,105
2017-05-08T06:40:45.820Z,105
2017-05-08T06:41:56.832Z,105
2017-05-08T06:43:07.847Z,110
2017-05-08T06:44:18.904Z,110
2017-05-08T06:45:29.916Z,115
2017-05-08T06:46:40.927Z,115
2017-05-08T06:47:51.943Z,115
2017-05-08T06:49:02.973Z,110
2017-05-08T06:50:13.981Z,110
2017-05-08T06:51:24.993Z,115
2017-05-08T06:52:36.006Z,120
2017-05-08T06:53:47.211Z,110
2017-05-08T06:54:58.474Z,110
2017-05-08T06:56:09.478Z,110
2017-05-08T06:57:20.898Z,110
2017-05-08T06:58:31.909Z,110
2017-05-08T06:59:42.927Z,105
2017-05-08T07:00:53.939Z,105
2017-05-08T07:02:04.954Z,105
2017-05-08T07:03:15.965Z,105
2017-05-08T07:04:27.172Z,105
2017-05-08T07:05:38.188Z,105
2017-05-08T07:06:49.399Z,105
2017-05-08T07:08:00.408Z,105
2017-05-08T07:09:11.430Z,110
2017-05-08T07:10:22.498Z,100
2017-05-08T07:11:33.515Z,105
2017-05-08T07:12:44.535Z,105
2017-05-08T07:13:55.567Z,105
2017-05-08T07:15:06.579Z,105
2017-05-08T07:16:17.791Z,115
2017-05-08T07:17:28.806Z,120
2017-05-08T07:18:39.824Z,125
2017-05-08T07:19:51.022Z,125
2017-05-08T07:21:02.067Z,125
2017-05-08T07:22:13.077Z,120
2017-05-08T07:23:24.081Z,115
2017-05-08T07:24:35.092Z,105
2017-05-08T07:25:46.122Z,105
2017-05-08T07:26:57.145Z,105
2017-05-08T07:28:08.355Z,110
2017-05-08T07:29:19.411Z,110
2017-05-08T07:30:30.419Z,115
2017-05-08T07:31:41.472Z,115
2017-05-08T07:32:52.494Z,120
2017-05-08T07:34:03.715Z,135
2017-05-08T07:35:14.939Z,140
2017-05-08T07:36:26.137Z,150
2017-05-08T07:37:37.156Z,155
2017-05-08T07:38:48.167Z,155
2017-05-08T07:39:59.377Z,160
2017-05-08T07:41:10.386Z,160
2017-05-08T07:42:21.848Z,165
2017-05-08T07:43:32.867Z,160
2017-05-08T07:44:43.879Z,160
2017-05-08T07:45:54.886Z,155
2017-05-08T07:47:05.896Z,150
2017-05-08T07:48:16.958Z,150
2017-05-08T07:49:28.027Z,150
2017-05-08T07:50:39.037Z,150
2017-05-08T07:51:50.073Z,155
2017-05-08T07:53:01.095Z,155
2017-05-08T07:54:12.104Z,160
2017-05-08T07:55:23.120Z,165
2017-05-08T07:56:34.137Z,165
2017-05-08T07:57:45.411Z,165
2017-05-08T07:58:56.423Z,165
2017-05-08T08:00:07.626Z,170
2017-05-08T08:01:18.626Z,170
2017-05-08T08:02:29.638Z,170
2017-05-08T08:03:40.646Z,170
2017-05-08T08:04:51.650Z,175
2017-05-08T08:06:02.658Z,180
2017-05-08T08:07:13.868Z,185
2017-05-08T08:08:24.892Z,195
2017-05-08T08:09:35.905Z,200
2017-05-08T08:10:47.110Z,205
2017-05-08T08:11:58.114Z,210
2017-05-08T08:13:09.128Z,215
2017-05-08T08:14:20.202Z,225
2017-05-08T08:15:31.420Z,240
2017-05-08T08:16:42.637Z,240
2017-05-08T08:17:53.646Z,235
2017-05-08T08:19:04.651Z,225
2017-05-08T08:20:15.858Z,225
2017-05-08T08:21:26.875Z,230
2017-05-08T08:22:37.885Z,235
2017-05-08T08:23:48.899Z,240
2017-05-08T08:24:59.959Z,240
2017-05-08T08:26:11.176Z,240
2017-05-08T08:27:22.183Z,245
2017-05-08T08:28:33.198Z,250
2017-05-08T08:29:44.223Z,260
2017-05-08T08:30:55.236Z,270
2017-05-08T08:32:06.251Z,275
2017-05-08T08:33:17.266Z,270
2017-05-08T08:34:28.274Z,265
2017-05-08T08:35:39.531Z,260
2017-05-08T08:36:50.539Z,250
2017-05-08T08:38:01.546Z,245
2017-05-08T08:39:12.554Z,240
2017-05-08T08:40:23.575Z,240
2017-05-08T08:41:34.592Z,240
2017-05-08T08:42:45.611Z,235
2017-05-08T08:43:56.623Z,220
2017-05-08T08:45:07.642Z,215
2017-05-08T08:46:18.712Z,210
2017-05-08T08:47:29.769Z,205
2017-05-08T08:48:40.771Z,210
2017-05-08T08:49:51.785Z,205
2017-05-08T08:51:02.795Z,205
2017-05-08T08:52:13.808Z,200
2017-05-08T08:53:24.815Z,190
2017-05-08T08:54:36.034Z,190
2017-05-08T08:55:47.251Z,195
2017-05-08T08:56:58.312Z,190
2017-05-08T08:58:09.337Z,190
2017-05-08T08:59:20.349Z,190
2017-05-08T09:00:31.366Z,190
2017-05-08T09:01:42.382Z,195
2017-05-08T09:02:53.461Z,200
2017-05-08T09:04:04.673Z,210
2017-05-08T09:05:15.683Z,210
2017-05-08T09:06:26.902Z,220
2017-05-08T09:07:37.913Z,215
2017-05-08T09:08:48.934Z,215
2017-05-08T09:09:59.957Z,215
2017-05-08T09:11:11.170Z,215
2017-05-08T09:12:22.384Z,205
2017-05-08T09:13:33.397Z,210
2017-05-08T09:14:44.408Z,220
2017-05-08T09:15:55.413Z,220
2017-05-08T09:17:06.432Z,225
2017-05-08T09:18:17.433Z,235
2017-05-08T09:19:28.699Z,265
2017-05-08T09:20:39.708Z,265
2017-05-08T09:21:50.720Z,250
2017-05-08T09:23:01.730Z,235
2017-05-08T09:24:12.741Z,260
2017-05-08T09:25:23.756Z,260
2017-05-08T09:26:34.968Z,255
2017-05-08T09:27:45.990Z,260
2017-05-08T09:28:57.000Z,255
2017-05-08T09:30:08.063Z,255
2017-05-08T09:31:19.109Z,260
2017-05-08T09:32:30.125Z,270
2017-05-08T09:33:41.143Z,280
2017-05-08T09:34:52.153Z,280
2017-05-08T09:36:03.161Z,275
2017-05-08T09:37:14.369Z,265
2017-05-08T09:38:25.381Z,265
2017-05-08T09:39:36.398Z,270
2017-05-08T09:40:47.468Z,270
2017-05-08T09:41:58.485Z,275
2017-05-08T09:43:09.707Z,275
2017-05-08T09:44:20.722Z,275
2017-05-08T09:45:31.740Z,275
2017-05-08T09:46:42.747Z,275
2017-05-08T09:47:53.753Z,270
2017-05-08T09:49:04.801Z,275
2017-05-08T09:50:16.017Z,295
2017-05-08T09:51:27.228Z,315
2017-05-08T09:52:38.244Z,325
2017-05-08T09:53:49.260Z,345
2017-05-08T09:55:00.277Z,360
2017-05-08T09:56:11.289Z,390
2017-05-08T09:57:22.504Z,410
2017-05-08T09:58:33.521Z,395
2017-05-08T09:59:44.542Z,380
2017-05-08T10:00:55.756Z,405
2017-05-08T10:02:06.822Z,410
2017-05-08T10:03:17.836Z,420
2017-05-08T10:04:28.849Z,395
2017-05-08T10:05:39.868Z,345
2017-05-08T10:06:50.882Z,305
2017-05-08T10:08:01.951Z,295
2017-05-08T10:09:12.983Z,305
2017-05-08T10:10:24.005Z,310
2017-05-08T10:11:35.022Z,325
2017-05-08T10:12:46.023Z,345
2017-05-08T10:13:57.033Z,365
2017-05-08T10:15:08.265Z,375
2017-05-08T10:16:19.280Z,385
2017-05-08T10:17:30.287Z,420
2017-05-08T10:18:41.302Z,420
2017-05-08T10:19:52.305Z,390
2017-05-08T10:21:03.323Z,365
2017-05-08T10:22:14.337Z,350
2017-05-08T10:23:25.350Z,355
2017-05-08T10:24:36.403Z,350
2017-05-08T10:25:47.405Z,335
2017-05-08T10:26:58.432Z,330
2017-05-08T10:28:09.483Z,335
2017-05-08T10:29:20.933Z,345
2017-05-08T10:30:31.945Z,355
2017-05-08T10:31:43.169Z,335
2017-05-08T10:32:54.372Z,320
2017-05-08T10:34:05.385Z,300
2017-05-08T10:35:16.453Z,280
2017-05-08T10:36:27.481Z,265
2017-05-08T10:37:38.489Z,245
2017-05-08T10:38:49.510Z,265
2017-05-08T10:40:00.519Z,320
2017-05-08T10:41:11.527Z,380
2017-05-08T10:42:22.532Z,455
2017-05-08T10:43:33.558Z,495
2017-05-08T10:44:44.582Z,530
2017-05-08T10:45:55.852Z,565
2017-05-08T10:47:06.877Z,590
2017-05-08T10:48:18.091Z,580
2017-05-08T10:49:29.111Z,570
2017-05-08T10:50:40.123Z,555
2017-05-08T10:51:51.134Z,545
2017-05-08T10:53:02.137Z,535
2017-05-08T10:54:13.150Z,525
2017-05-08T10:55:24.157Z,515
2017-05-08T10:56:35.208Z,515
2017-05-08T10:57:46.220Z,510
2017-05-08T10:58:57.240Z,475
2017-05-08T11:00:08.265Z,415
2017-05-08T11:01:19.280Z,365
2017-05-08T11:02:30.485Z,320
2017-05-08T11:03:41.500Z,290
2017-05-08T11:04:52.509Z,285
2017-05-08T11:06:03.529Z,285
2017-05-08T11:07:14.584Z,285
2017-05-08T11:08:25.601Z,285
2017-05-08T11:09:36.612Z,275
2017-05-08T11:10:47.632Z,265
2017-05-08T11:11:58.847Z,275
2017-05-08T11:13:10.113Z,310
2017-05-08T11:14:21.340Z,330
2017-05-08T11:15:32.355Z,330
2017-05-08T11:16:43.376Z,325
2017-05-08T11:17:54.386Z,315
2017-05-08T11:19:05.396Z,285
2017-05-08T11:20:16.413Z,235
2017-05-08T11:21:27.418Z,210
2017-05-08T11:22:38.438Z,225
2017-05-08T11:23:49.509Z,265
2017-05-08T11:25:00.524Z,275
2017-05-08T11:26:11.536Z,255
2017-05-08T11:27:22.545Z,235
2017-05-08T11:28:33.558Z,220
2017-05-08T11:29:44.572Z,210
2017-05-08T11:30:55.797Z,215
2017-05-08T11:32:06.812Z,225
2017-05-08T11:33:18.014Z,225
2017-05-08T11:34:29.082Z,220
2017-05-08T11:35:40.100Z,210
2017-05-08T11:36:51.112Z,210
2017-05-08T11:38:02.148Z,220
2017-05-08T11:39:13.161Z,225
2017-05-08T11:40:24.170Z,235
2017-05-08T11:41:35.206Z,240
2017-05-08T11:42:46.215Z,250
2017-05-08T11:43:57.233Z,240
2017-05-08T11:45:08.505Z,215
2017-05-08T11:46:19.522Z,185
2017-05-08T11:47:30.539Z,160
2017-05-08T11:48:41.558Z,150
2017-05-08T11:49:52.777Z,145
2017-05-08T11:51:03.995Z,145
2017-05-08T11:52:15.013Z,150
2017-05-08T11:53:26.038Z,155
2017-05-08T11:54:37.062Z,165
2017-05-08T11:55:48.334Z,170
2017-05-08T11:56:59.346Z,175
2017-05-08T11:58:10.363Z,185
2017-05-08T11:59:21.379Z,185
2017-05-08T12:00:32.401Z,195
2017-05-08T12:01:43.419Z,200
2017-05-08T12:02:54.434Z,185
2017-05-08T12:04:05.445Z,175
2017-05-08T12:05:16.464Z,175
2017-05-08T12:06:27.519Z,180
2017-05-08T12:07:38.534Z,180
2017-05-08T12:08:49.548Z,180
2017-05-08T12:10:00.560Z,195
2017-05-08T12:11:11.566Z,210
2017-05-08T12:12:22.615Z,220
2017-05-08T12:13:33.837Z,200
2017-05-08T12:14:45.093Z,175
2017-05-08T12:15:56.113Z,155
2017-05-08T12:17:07.186Z,145
2017-05-08T12:18:18.215Z,135
2017-05-08T12:19:29.222Z,135
2017-05-08T12:20:40.435Z,150
2017-05-08T12:21:51.458Z,175
2017-05-08T12:23:02.480Z,195
2017-05-08T12:24:13.494Z,205
2017-05-08T12:25:24.710Z,200
2017-05-08T12:26:35.715Z,185
2017-05-08T12:27:46.778Z,185
2017-05-08T12:28:57.791Z,175
2017-05-08T12:30:08.805Z,190
2017-05-08T12:31:19.811Z,210
2017-05-08T12:32:30.824Z,220
2017-05-08T12:33:41.831Z,220
2017-05-08T12:34:52.835Z,220
2017-05-08T12:36:03.848Z,220
2017-05-08T12:37:14.864Z,220
2017-05-08T12:38:25.926Z,220
2017-05-08T12:39:36.938Z,230
2017-05-08T12:40:47.942Z,220
2017-05-08T12:41:58.946Z,205
2017-05-08T12:43:09.969Z,190
2017-05-08T12:44:20.981Z,185
2017-05-08T12:45:31.987Z,180
2017-05-08T12:46:43.006Z,170
2017-05-08T12:47:54.022Z,170
2017-05-08T12:49:05.082Z,170
2017-05-08T12:50:16.300Z,180
2017-05-08T12:51:27.314Z,185
2017-05-08T12:52:38.355Z,175
2017-05-08T12:53:49.565Z,180
2017-05-08T12:55:00.783Z,185
2017-05-08T12:56:11.799Z,175
2017-05-08T12:57:22.823Z,170
2017-05-08T12:58:33.838Z,165
2017-05-08T12:59:45.107Z,150
2017-05-08T13:00:56.111Z,150
2017-05-08T13:02:07.126Z,160
2017-05-08T13:03:18.164Z,160
2017-05-08T13:04:29.166Z,155
2017-05-08T13:05:40.177Z,150
2017-05-08T13:06:51.195Z,145
2017-05-08T13:08:02.206Z,140
2017-05-08T13:09:13.209Z,140
2017-05-08T13:10:24.234Z,135
2017-05-08T13:11:35.249Z,125
2017-05-08T13:12:46.273Z,120
2017-05-08T13:13:57.290Z,125
2017-05-08T13:15:08.359Z,130
2017-05-08T13:16:19.363Z,125
2017-05-08T13:17:30.376Z,125
2017-05-08T13:18:41.395Z,120
2017-05-08T13:19:52.408Z,120
2017-05-08T13:21:03.430Z,120
2017-05-08T13:22:14.451Z,115
2017-05-08T13:23:25.455Z,110
2017-05-08T13:24:36.473Z,115
2017-05-08T13:25:47.483Z,115
2017-05-08T13:26:58.500Z,115
2017-05-08T13:28:09.959Z,120
2017-05-08T13:29:21.176Z,130
2017-05-08T13:30:32.441Z,135
2017-05-08T13:31:43.443Z,150
2017-05-08T13:32:54.654Z,170
2017-05-08T13:34:05.662Z,160
2017-05-08T13:35:16.879Z,145
2017-05-08T13:36:27.897Z,125
2017-05-08T13:37:38.909Z,110
2017-05-08T13:38:49.927Z,115
2017-05-08T13:40:00.941Z,120
2017-05-08T13:41:12.008Z,125
2017-05-08T13:42:23.033Z,130
2017-05-08T13:43:34.045Z,125
2017-05-08T13:44:45.064Z,125
2017-05-08T13:45:56.085Z,120
2017-05-08T13:47:07.301Z,125
2017-05-08T13:48:18.738Z,135
2017-05-08T13:49:29.963Z,140
2017-05-08T13:50:40.982Z,165
2017-05-08T13:51:52.064Z,175
2017-05-08T13:53:03.269Z,175
2017-05-08T13:54:14.286Z,180
2017-05-08T13:55:25.293Z,165
2017-05-08T13:56:36.318Z,130
2017-05-08T13:57:47.326Z,125
2017-05-08T13:58:58.352Z,140
2017-05-08T14:00:09.367Z,130
2017-05-08T14:01:20.380Z,120
2017-05-08T14:02:31.441Z,110
2017-05-08T14:03:42.447Z,110
2017-05-08T14:04:53.460Z,115
2017-05-08T14:06:04.470Z,115
2017-05-08T14:07:15.479Z,100
2017-05-08T14:08:26.490Z,100
2017-05-08T14:09:37.500Z,135
2017-05-08T14:10:48.913Z,180
2017-05-08T14:11:59.926Z,245
2017-05-08T14:13:10.992Z,295
2017-05-08T14:14:22.007Z,340
2017-05-08T14:15:33.015Z,375
2017-05-08T14:16:44.025Z,410
2017-05-08T14:17:55.038Z,455
2017-05-08T14:19:06.097Z,495
2017-05-08T14:20:17.336Z,545
2017-05-08T14:21:28.553Z,600
2017-05-08T14:22:39.570Z,615
2017-05-08T14:23:50.593Z,645
2017-05-08T14:25:01.602Z,375
2017-05-08T14:26:12.823Z,260
2017-05-08T14:27:23.834Z,170
2017-05-08T14:28:35.058Z,110
2017-05-08T14:29:46.480Z,80
2017-05-08T14:30:57.490Z,65
2017-05-08T14:32:08.703Z,80
2017-05-08T14:33:19.720Z,100
2017-05-08T14:34:30.926Z,110
2017-05-08T14:35:41.932Z,115
2017-05-08T14:36:52.948Z,130
2017-05-08T14:38:04.001Z,145
2017-05-08T14:39:15.022Z,160
2017-05-08T14:40:26.092Z,180
2017-05-08T14:41:37.097Z,210
2017-05-08T14:42:48.110Z,240
2017-05-08T14:43:59.138Z,265
2017-05-08T14:45:10.351Z,295
2017-05-08T14:46:21.565Z,320
2017-05-08T14:47:32.579Z,405
2017-05-08T14:48:43.590Z,430
2017-05-08T14:49:54.809Z,355
2017-05-08T14:51:06.065Z,350
2017-05-08T14:52:17.274Z,415
2017-05-08T14:53:28.284Z,430
2017-05-08T14:54:39.299Z,435
2017-05-08T14:55:50.506Z,385
2017-05-08T14:57:01.516Z,405
2017-05-08T14:58:12.532Z,370
2017-05-08T14:59:23.549Z,355
2017-05-08T15:00:34.761Z,345
2017-05-08T15:01:46.026Z,365
2017-05-08T15:02:57.050Z,400
2017-05-08T15:04:08.063Z,375
2017-05-08T15:05:19.270Z,365
2017-05-08T15:06:30.288Z,365
2017-05-08T15:07:41.309Z,360
2017-05-08T15:08:52.318Z,345
2017-05-08T15:10:03.339Z,285
2017-05-08T15:11:14.358Z,320
2017-05-08T15:12:25.423Z,295
2017-05-08T15:13:36.432Z,245
2017-05-08T15:14:47.449Z,295
2017-05-08T15:15:58.461Z,285
2017-05-08T15:17:09.677Z,280
2017-05-08T15:18:20.898Z,285
2017-05-08T15:19:31.918Z,280
2017-05-08T15:20:42.937Z,280
2017-05-08T15:21:53.944Z,310
2017-05-08T15:23:04.996Z,305
2017-05-08T15:24:16.001Z,305
2017-05-08T15:25:27.012Z,310
2017-05-08T15:26:38.029Z,310
2017-05-08T15:27:49.238Z,295
2017-05-08T15:29:00.247Z,290
2017-05-08T15:30:11.262Z,285
2017-05-08T15:31:22.477Z,275
2017-05-08T15:32:33.493Z,265
2017-05-08T15:33:44.538Z,260
2017-05-08T15:34:55.560Z,245
2017-05-08T15:36:06.566Z,255
2017-05-08T15:37:17.573Z,255
2017-05-08T15:38:28.587Z,250
2017-05-08T15:39:39.649Z,250
2017-05-08T15:40:50.666Z,240
2017-05-08T15:42:01.677Z,235
2017-05-08T15:43:12.705Z,220
2017-05-08T15:44:23.720Z,205
2017-05-08T15:45:34.747Z,215
2017-05-08T15:46:45.770Z,195
2017-05-08T15:47:56.983Z,190
2017-05-08T15:49:07.991Z,190
2017-05-08T15:50:19.252Z,210
2017-05-08T15:51:30.263Z,225
2017-05-08T15:52:41.269Z,225
2017-05-08T15:53:52.496Z,255
2017-05-08T15:55:03.514Z,235
2017-05-08T15:56:14.523Z,255
2017-05-08T15:57:25.542Z,250
2017-05-08T15:58:36.750Z,225
2017-05-08T15:59:47.760Z,195
2017-05-08T16:00:58.814Z,195
2017-05-08T16:02:09.824Z,200
2017-05-08T16:03:20.846Z,210
2017-05-08T16:04:31.867Z,220
2017-05-08T16:05:42.877Z,225
2017-05-08T16:06:53.901Z,225
2017-05-08T16:08:04.913Z,230
2017-05-08T16:09:15.951Z,225
2017-05-08T16:10:26.973Z,225
2017-05-08T16:11:38.037Z,220
2017-05-08T16:12:49.051Z,225
2017-05-08T16:14:00.064Z,225
2017-05-08T16:15:11.091Z,230
2017-05-08T16:16:22.302Z,260
2017-05-08T16:17:33.316Z,220
2017-05-08T16:18:44.352Z,255
2017-05-08T16:19:55.565Z,245
2017-05-08T16:21:06.576Z,245
2017-05-08T16:22:17.843Z,240
2017-05-08T16:23:28.863Z,200
2017-05-08T16:24:39.878Z,195
2017-05-08T16:25:50.890Z,200
2017-05-08T16:27:01.906Z,195
2017-05-08T16:28:12.972Z,245
2017-05-08T16:29:24.190Z,240
2017-05-08T16:30:35.405Z,200
2017-05-08T16:31:46.425Z,170
2017-05-08T16:32:57.439Z,165
2017-05-08T16:34:08.448Z,180
2017-05-08T16:35:19.457Z,155
2017-05-08T16:36:30.469Z,150
2017-05-08T16:37:41.475Z,150
2017-05-08T16:38:52.680Z,150
2017-05-08T16:40:03.691Z,150
2017-05-08T16:41:14.698Z,150